Time;durP1;ratioP1;P1;durP2;ratioP2;P2;SDS_P1;SDS_P2;PMS_P1;PMS_P2;Temp;Humidity;BMP_temperature;BMP_pressure;BME280_temperature;BME280_humidity;BME280_pressure;Samples;Min_cycle;Max_cycle;Signal;HPM_P1;HPM_P2
2022/12/09 00:07:51;;;;;;;9.52;2.03;;;11.50;83.70;;;;;;21086857;28;20048;-58
2022/12/09 00:17:53;;;;;;;5.95;2.00;;;11.50;83.40;;;;;;21086468;28;20450;-58
2022/12/09 00:27:57;;;;;;;4.78;1.95;;;11.50;83.50;;;;;;21085566;28;20047;-57
2022/12/09 00:37:59;;;;;;;10.75;2.88;;;11.50;83.40;;;;;;21084170;28;20361;-58
2022/12/09 00:48:01;;;;;;;7.00;2.53;;;11.40;83.80;;;;;;21084265;28;20062;-60
2022/12/09 00:58:04;;;;;;;20.63;12.25;;;11.40;83.90;;;;;;21082821;28;20075;-57
2022/12/09 01:08:07;;;;;;;8.70;5.80;;;11.50;83.90;;;;;;21081802;28;20177;-58
2022/12/09 01:18:10;;;;;;;7.28;3.75;;;11.40;83.50;;;;;;21081698;28;20135;-58
2022/12/09 01:28:12;;;;;;;11.25;4.28;;;11.40;83.60;;;;;;21080721;28;20055;-60
2022/12/09 01:38:15;;;;;;;9.00;3.95;;;11.40;83.30;;;;;;21080798;28;20434;-59
2022/12/09 01:48:24;;;;;;;8.77;4.57;;;11.30;83.60;;;;;;21080417;28;20117;-58
2022/12/09 01:58:26;;;;;;;9.27;4.15;;;11.30;83.40;;;;;;21079093;28;20138;-59
2022/12/09 02:08:28;;;;;;;10.98;4.28;;;11.30;83.50;;;;;;21078573;28;20048;-58
2022/12/09 02:18:48;;;;;;;7.45;3.45;;;11.30;83.30;;;;;;21077944;28;20052;-59
2022/12/09 02:29:08;;;;;;;7.43;2.83;;;11.40;83.20;;;;;;21078831;28;20185;-59
2022/12/09 02:39:10;;;;;;;8.75;3.58;;;11.40;83.00;;;;;;21086275;28;20052;-58
2022/12/09 02:49:14;;;;;;;11.30;5.38;;;11.40;82.70;;;;;;21093328;28;20060;-58
2022/12/09 02:59:19;;;;;;;14.05;7.30;;;11.30;83.10;;;;;;21092064;28;20063;-60
2022/12/09 03:09:33;;;;;;;12.77;6.70;;;11.20;83.40;;;;;;21092152;28;20044;-62
2022/12/09 03:19:51;;;;;;;12.65;7.05;;;11.30;83.50;;;;;;21092378;28;20308;-58
2022/12/09 03:29:56;;;;;;;11.27;6.88;;;11.30;83.30;;;;;;21091832;28;20052;-57
2022/12/09 03:39:59;;;;;;;13.80;6.97;;;11.30;83.50;;;;;;21089596;28;20186;-60
2022/12/09 03:50:04;;;;;;;13.02;6.82;;;11.40;83.60;;;;;;21086917;28;20385;-59
2022/12/09 04:00:11;;;;;;;16.95;7.60;;;11.40;83.60;;;;;;21088103;28;20091;-58
2022/12/09 04:10:32;;;;;;;15.43;7.45;;;11.40;83.60;;;;;;21087408;28;20044;-58
2022/12/09 04:20:42;;;;;;;18.77;10.30;;;11.40;83.60;;;;;;21085543;28;20052;-58
2022/12/09 04:30:50;;;;;;;18.50;8.02;;;11.30;83.60;;;;;;21085382;28;20087;-60
2022/12/09 04:40:54;;;;;;;18.00;8.77;;;11.20;83.50;;;;;;21083695;28;20480;-58
2022/12/09 04:51:15;;;;;;;15.95;8.07;;;11.20;83.40;;;;;;21084241;28;20434;-59
2022/12/09 05:01:21;;;;;;;17.15;8.05;;;11.30;83.10;;;;;;21082015;28;20048;-58
2022/12/09 05:11:23;;;;;;;19.95;8.65;;;11.20;83.30;;;;;;21082164;28;20127;-57
2022/12/09 05:21:26;;;;;;;22.27;10.30;;;11.20;83.30;;;;;;21082115;28;20400;-57
2022/12/09 05:31:29;;;;;;;25.85;11.07;;;11.10;83.90;;;;;;21080671;28;20048;-59
2022/12/09 05:41:31;;;;;;;15.05;6.95;;;11.20;83.00;;;;;;21079127;28;20054;-59
2022/12/09 05:51:33;;;;;;;10.88;5.78;;;11.00;83.00;;;;;;21079408;28;20055;-59
2022/12/09 06:01:35;;;;;;;13.07;5.75;;;11.10;82.70;;;;;;21079132;28;20139;-59
2022/12/09 06:11:38;;;;;;;9.02;4.55;;;10.90;82.90;;;;;;21085450;28;20130;-59
2022/12/09 06:21:40;;;;;;;11.40;4.25;;;10.90;82.90;;;;;;21095418;28;20059;-59
2022/12/09 06:31:42;;;;;;;9.85;5.28;;;10.90;82.80;;;;;;21093950;28;20044;-58
2022/12/09 06:41:44;;;;;;;12.25;6.20;;;11.00;82.90;;;;;;21093617;28;20464;-58
2022/12/09 06:51:46;;;;;;;10.13;4.53;;;10.90;83.00;;;;;;21093308;28;20181;-58
2022/12/09 07:01:48;;;;;;;7.90;3.88;;;10.90;82.80;;;;;;21093206;28;20502;-58
2022/12/09 07:11:50;;;;;;;8.27;3.60;;;10.90;82.90;;;;;;21091190;28;20048;-58
2022/12/09 07:21:52;;;;;;;10.50;3.28;;;11.00;82.60;;;;;;21091101;28;20052;-57
2022/12/09 07:31:53;;;;;;;10.00;3.70;;;11.00;82.20;;;;;;21090164;28;20044;-59
2022/12/09 07:41:56;;;;;;;8.23;3.30;;;11.00;81.70;;;;;;21089206;28;20054;-59
2022/12/09 07:51:58;;;;;;;8.02;4.20;;;11.00;82.30;;;;;;21088002;28;20449;-60
2022/12/09 08:01:59;;;;;;;7.03;3.80;;;11.10;82.20;;;;;;21087073;28;20055;-58
2022/12/09 08:12:01;;;;;;;8.25;4.35;;;11.10;82.20;;;;;;21087385;28;20552;-58
2022/12/09 08:22:03;;;;;;;11.23;3.90;;;11.20;82.50;;;;;;21084918;28;20056;-60
2022/12/09 08:32:05;;;;;;;10.00;4.45;;;11.10;82.70;;;;;;21085181;28;20046;-59
2022/12/09 08:42:07;;;;;;;9.70;4.45;;;11.10;82.70;;;;;;21084450;28;20056;-59
2022/12/09 08:52:09;;;;;;;17.00;5.00;;;11.10;82.60;;;;;;21084088;28;20534;-58
2022/12/09 09:02:12;;;;;;;11.10;5.63;;;11.10;82.80;;;;;;21082790;28;20055;-59
2022/12/09 09:12:13;;;;;;;10.38;4.97;;;11.20;82.90;;;;;;21082294;28;20074;-58
2022/12/09 09:22:15;;;;;;;13.57;6.20;;;11.10;83.20;;;;;;21081325;28;20048;-59
2022/12/09 09:32:17;;;;;;;16.15;8.57;;;11.10;83.90;;;;;;21080430;28;20197;-60
2022/12/09 09:42:26;;;;;;;13.88;6.47;;;11.00;84.50;;;;;;21079528;28;20044;-59
2022/12/09 09:52:29;;;;;;;15.65;7.35;;;11.10;85.00;;;;;;21093950;28;20055;-59
2022/12/09 10:02:58;;;;;;;11.50;5.68;;;11.10;85.00;;;;;;21163812;28;20059;-60
2022/12/09 10:13:02;;;;;;;7.05;3.90;;;11.20;85.00;;;;;;21197299;28;20039;-60
2022/12/09 10:23:11;;;;;;;11.13;5.50;;;12.30;80.10;;;;;;21209899;28;20043;-58
2022/12/09 10:33:13;;;;;;;9.98;5.28;;;13.60;76.00;;;;;;21202662;28;20143;-58
2022/12/09 10:43:33;;;;;;;8.02;3.92;;;14.00;74.00;;;;;;21160807;28;20083;-58
2022/12/09 10:53:36;;;;;;;11.27;4.47;;;14.00;73.40;;;;;;21160426;28;20047;-61
2022/12/09 11:03:54;;;;;;;10.70;5.75;;;14.10;73.20;;;;;;21174796;28;20122;-60
2022/12/09 11:13:56;;;;;;;8.27;5.50;;;14.20;72.90;;;;;;21259701;27;20139;-59
2022/12/09 11:23:59;;;;;;;9.82;4.50;;;14.20;72.70;;;;;;21259839;27;20081;-57
2022/12/09 11:34:13;;;;;;;7.07;4.30;;;14.40;71.50;;;;;;21258629;27;20091;-56
2022/12/09 11:44:35;;;;;;;5.43;3.35;;;14.50;71.50;;;;;;21259276;27;20074;-60
2022/12/09 11:55:11;;;;;;;6.07;4.00;;;14.60;70.90;;;;;;21258382;27;20062;-59
2022/12/09 12:05:50;;;;;;;9.00;5.28;;;14.60;71.90;;;;;;20829835;28;20404;-58
2022/12/09 12:16:08;;;;;;;12.50;7.57;;;14.80;71.70;;;;;;20828725;28;20092;-61
2022/12/09 12:26:15;;;;;;;8.95;5.55;;;14.90;71.00;;;;;;20828425;28;20057;-63
2022/12/09 12:36:31;;;;;;;5.65;4.43;;;14.90;70.90;;;;;;20950027;27;20051;-60
2022/12/09 12:47:05;;;;;;;15.55;10.10;;;14.60;72.00;;;;;;21252648;27;20108;-58
2022/12/09 12:57:38;;;;;;;9.27;6.93;;;14.90;71.40;;;;;;21251688;27;20062;-60
2022/12/09 13:07:43;;;;;;;7.03;4.40;;;14.90;71.40;;;;;;21252907;27;20047;-58
2022/12/09 13:17:47;;;;;;;10.48;5.10;;;15.00;71.50;;;;;;21249893;27;20119;-63
2022/12/09 13:27:58;;;;;;;10.30;5.03;;;14.90;71.70;;;;;;21250098;27;20443;-59
2022/12/09 13:38:23;;;;;;;7.80;4.72;;;14.90;71.80;;;;;;21248017;27;20104;-60
2022/12/09 13:48:28;;;;;;;8.63;5.95;;;14.00;74.00;;;;;;21248224;27;20039;-59
2022/12/09 13:58:55;;;;;;;9.18;6.57;;;13.80;76.10;;;;;;21248330;27;20415;-60
2022/12/09 14:09:01;;;;;;;9.18;5.90;;;13.70;76.00;;;;;;21247644;28;20047;-60
2022/12/09 14:19:23;;;;;;;9.88;6.43;;;13.70;77.10;;;;;;21230611;27;20498;-60
2022/12/09 14:29:46;;;;;;;8.13;5.70;;;13.70;76.20;;;;;;21248204;27;20051;-61
2022/12/09 14:40:02;;;;;;;11.40;6.50;;;13.60;76.10;;;;;;21263548;27;20161;-60
2022/12/09 14:50:12;;;;;;;8.05;6.60;;;13.50;78.60;;;;;;21263728;27;20125;-60
2022/12/09 15:00:35;;;;;;;9.77;6.10;;;13.40;79.50;;;;;;21261364;27;20078;-60
2022/12/09 15:10:37;;;;;;;8.25;6.22;;;13.10;80.30;;;;;;21260746;27;20046;-60
2022/12/09 15:20:41;;;;;;;10.73;8.35;;;13.00;81.30;;;;;;21242142;27;20493;-60
2022/12/09 15:30:44;;;;;;;8.23;6.90;;;13.00;81.80;;;;;;21239992;27;20078;-62
2022/12/09 15:51:15;;;;;;;15.63;8.52;;;12.80;83.00;;;;;;21256626;27;20055;-59
2022/12/09 16:01:26;;;;;;;21.80;15.98;;;12.70;83.50;;;;;;21256198;27;20051;-60
2022/12/09 16:11:47;;;;;;;15.93;11.75;;;12.60;83.30;;;;;;21255242;27;20039;-62
2022/12/09 16:21:52;;;;;;;11.98;7.75;;;12.50;83.60;;;;;;21254489;27;20051;-63
2022/12/09 16:32:33;;;;;;;11.95;8.10;;;12.50;83.30;;;;;;21253519;27;20079;-64
2022/12/09 16:42:34;;;;;;;13.25;9.45;;;12.70;82.80;;;;;;20825343;28;20051;-62
2022/12/09 16:52:38;;;;;;;17.77;12.20;;;13.20;81.20;;;;;;20824377;28;20057;-65
2022/12/09 17:02:55;;;;;;;20.23;13.67;;;12.80;82.40;;;;;;20824229;28;20061;-63
2022/12/09 17:12:57;;;;;;;23.25;14.20;;;12.70;82.90;;;;;;21049260;27;20471;-63
2022/12/09 17:23:00;;;;;;;6.55;4.55;;;12.70;82.90;;;;;;21249413;27;20058;-61
2022/12/09 17:33:02;;;;;;;7.10;4.38;;;12.40;81.70;;;;;;21247720;27;20051;-58
2022/12/09 17:43:03;;;;;;;7.28;4.07;;;12.70;81.40;;;;;;21246888;27;20039;-63
2022/12/09 17:53:05;;;;;;;7.57;5.72;;;12.70;80.10;;;;;;21245763;27;20059;-61
2022/12/09 18:03:07;;;;;;;28.10;18.17;;;12.80;81.30;;;;;;21246461;27;20406;-64
2022/12/09 18:13:09;;;;;;;9.90;6.75;;;12.70;81.00;;;;;;21226571;28;20105;-60
2022/12/09 18:23:11;;;;;;;10.32;7.25;;;12.90;81.50;;;;;;21241874;28;20503;-56
2022/12/09 18:33:13;;;;;;;7.63;6.10;;;12.90;81.50;;;;;;21163171;28;20130;-61
2022/12/09 18:43:15;;;;;;;9.52;5.88;;;13.30;81.10;;;;;;21159627;28;20095;-62
2022/12/09 18:53:16;;;;;;;8.05;5.35;;;12.70;80.90;;;;;;21159530;28;20051;-66
2022/12/09 19:03:18;;;;;;;6.05;4.15;;;12.40;80.80;;;;;;21141270;28;20043;-66
2022/12/09 19:13:19;;;;;;;7.18;5.13;;;12.20;81.00;;;;;;21159555;28;20384;-59
2022/12/09 19:23:21;;;;;;;6.65;4.13;;;12.10;81.20;;;;;;21170205;28;20039;-64
2022/12/09 19:33:23;;;;;;;6.72;3.55;;;12.10;81.00;;;;;;21173029;28;20048;-60
2022/12/09 19:43:25;;;;;;;5.88;3.90;;;12.10;80.90;;;;;;21172432;28;20047;-59
2022/12/09 19:53:26;;;;;;;5.05;3.85;;;12.10;81.50;;;;;;21189100;27;20083;-60
2022/12/09 20:03:28;;;;;;;4.95;3.47;;;12.20;81.90;;;;;;21256347;27;20379;-60
2022/12/09 20:13:30;;;;;;;5.18;3.45;;;12.10;81.50;;;;;;21254979;27;20043;-60
2022/12/09 20:23:37;;;;;;;5.28;3.38;;;11.90;81.40;;;;;;21254300;27;20047;-60
2022/12/09 20:33:40;;;;;;;4.68;3.17;;;11.90;81.50;;;;;;21252938;27;20051;-60
2022/12/09 20:43:44;;;;;;;4.15;3.30;;;11.70;81.40;;;;;;21253264;27;20104;-60
2022/12/09 20:53:47;;;;;;;4.18;3.58;;;11.70;81.50;;;;;;21251568;27;20055;-59
2022/12/09 21:03:50;;;;;;;5.07;4.10;;;11.70;81.50;;;;;;21232235;27;20051;-59
2022/12/09 21:14:03;;;;;;;5.20;4.50;;;11.70;81.20;;;;;;21250116;27;20053;-62
2022/12/09 21:24:06;;;;;;;8.10;4.55;;;11.60;81.30;;;;;;21249569;27;20384;-63
2022/12/09 21:34:10;;;;;;;5.30;3.40;;;11.60;81.40;;;;;;21248658;27;20154;-62
2022/12/09 21:44:17;;;;;;;5.05;4.35;;;11.20;81.80;;;;;;21246488;27;20053;-61
2022/12/09 21:54:19;;;;;;;5.13;3.92;;;11.20;82.20;;;;;;21242497;27;20086;-61
2022/12/09 22:04:21;;;;;;;4.82;4.13;;;11.20;81.90;;;;;;21246612;27;20495;-62
2022/12/09 22:14:23;;;;;;;6.88;4.70;;;11.20;81.80;;;;;;21246361;27;20055;-60
2022/12/09 22:24:25;;;;;;;5.95;3.97;;;11.20;81.70;;;;;;21246147;27;20039;-60
2022/12/09 22:34:28;;;;;;;6.78;4.70;;;11.10;81.70;;;;;;21245221;27;20059;-61
2022/12/09 22:44:31;;;;;;;4.68;3.35;;;11.10;81.80;;;;;;21245973;27;20043;-62
2022/12/09 22:54:33;;;;;;;6.10;4.30;;;11.20;81.50;;;;;;21250782;27;20132;-59
2022/12/09 23:04:36;;;;;;;4.70;2.95;;;11.10;81.30;;;;;;21260046;27;20054;-61
2022/12/09 23:14:39;;;;;;;3.20;2.60;;;11.00;81.30;;;;;;21260716;27;20593;-60
2022/12/09 23:24:41;;;;;;;4.22;3.38;;;11.00;80.80;;;;;;21241083;27;20057;-60
2022/12/09 23:34:43;;;;;;;14.52;4.63;;;10.70;81.60;;;;;;21257966;27;20051;-59
2022/12/09 23:44:45;;;;;;;4.63;3.45;;;10.70;81.90;;;;;;21258312;27;20061;-61
2022/12/09 23:54:49;;;;;;;4.37;3.23;;;10.70;81.80;;;;;;21257379;27;20110;-59
